createdAt,value
2024-04-24T00:00:04.567Z,52.2
2024-04-24T00:01:48.248Z,52.3
2024-04-24T00:03:31.923Z,52.3
2024-04-24T00:05:15.644Z,52.2
2024-04-24T00:06:59.359Z,52.3
2024-04-24T00:08:43.051Z,52.2
2024-04-24T00:10:26.758Z,52.3
2024-04-24T00:12:10.449Z,52.3
2024-04-24T00:13:54.162Z,52.2
2024-04-24T00:15:37.855Z,52.4
2024-04-24T00:17:21.569Z,52.2
2024-04-24T00:19:05.273Z,52.2
2024-04-24T00:20:48.987Z,52.3
2024-04-24T00:22:32.678Z,52.3
2024-04-24T00:24:16.371Z,52.3
2024-04-24T00:26:00.086Z,52.3
2024-04-24T00:27:43.783Z,52.3
2024-04-24T00:29:27.506Z,52.2
2024-04-24T00:31:11.168Z,52.3
2024-04-24T00:32:54.874Z,52.3
2024-04-24T00:34:38.580Z,52.3
2024-04-24T00:36:22.281Z,52.3
2024-04-24T00:38:05.970Z,52.3
2024-04-24T00:39:49.694Z,52.3
2024-04-24T00:41:33.375Z,52.3
2024-04-24T00:43:17.074Z,52.3
2024-04-24T00:45:00.794Z,52.3
2024-04-24T00:46:44.484Z,52.3
2024-04-24T00:48:28.182Z,52.3
2024-04-24T00:50:11.905Z,52.4
2024-04-24T00:51:55.603Z,52.3
2024-04-24T00:53:39.296Z,52.3
2024-04-24T00:55:23.008Z,52.3
2024-04-24T00:57:06.729Z,52.4
2024-04-24T00:58:50.404Z,52.3
2024-04-24T01:00:34.085Z,52.3
2024-04-24T01:02:17.813Z,52.4
2024-04-24T01:04:01.520Z,52.3
2024-04-24T01:05:45.208Z,52.4
2024-04-24T01:07:28.927Z,52.3
2024-04-24T01:09:12.605Z,52.4
2024-04-24T01:10:56.295Z,52.4
2024-04-24T01:12:40.025Z,52.4
2024-04-24T01:14:23.731Z,52.3
2024-04-24T01:16:07.417Z,52.5
2024-04-24T01:17:51.117Z,52.4
2024-04-24T01:19:34.830Z,52.4
2024-04-24T01:21:18.509Z,52.4
2024-04-24T01:23:02.243Z,52.4
2024-04-24T01:24:45.925Z,52.4
2024-04-24T01:26:29.614Z,52.4
2024-04-24T01:28:13.317Z,52.3
2024-04-24T01:29:57.029Z,52.4
2024-04-24T01:31:40.735Z,52.4
2024-04-24T01:33:24.431Z,52.4
2024-04-24T01:35:08.179Z,52.4
2024-04-24T01:36:51.849Z,52.3
2024-04-24T01:38:35.556Z,52.4
2024-04-24T01:40:19.239Z,52.4
2024-04-24T01:42:02.944Z,52.4
2024-04-24T01:43:46.641Z,52.4
2024-04-24T01:45:30.348Z,52.4
2024-04-24T01:47:14.055Z,52.5
2024-04-24T01:48:57.750Z,52.4
2024-04-24T01:50:41.462Z,52.4
2024-04-24T01:52:25.173Z,52.4
2024-04-24T01:54:08.874Z,52.4
2024-04-24T01:55:52.565Z,52.4
2024-04-24T01:57:36.274Z,52.4
2024-04-24T01:59:19.986Z,52.4
2024-04-24T02:01:03.685Z,52.4
2024-04-24T02:02:47.365Z,52.5
2024-04-24T02:04:31.077Z,52.4
2024-04-24T02:06:14.776Z,52.5
2024-04-24T02:07:58.471Z,52.5
2024-04-24T02:09:42.200Z,52.5
2024-04-24T02:11:25.875Z,52.4
2024-04-24T02:13:09.595Z,52.4
2024-04-24T02:14:53.295Z,52.5
2024-04-24T02:16:36.984Z,52.5
2024-04-24T02:18:20.708Z,52.5
2024-04-24T02:20:04.392Z,52.5
2024-04-24T02:21:48.086Z,52.5
2024-04-24T02:23:31.792Z,52.5
2024-04-24T02:25:15.514Z,52.5
2024-04-24T02:26:59.202Z,52.5
2024-04-24T02:28:42.909Z,52.5
2024-04-24T02:30:26.606Z,52.5
2024-04-24T02:32:10.303Z,52.5
2024-04-24T02:33:54.005Z,52.4
2024-04-24T02:35:37.717Z,52.4
2024-04-24T02:37:21.416Z,52.5
2024-04-24T02:39:05.124Z,52.5
2024-04-24T02:40:48.816Z,52.5
2024-04-24T02:42:32.507Z,52.5
2024-04-24T02:44:16.213Z,52.5
2024-04-24T02:45:59.926Z,52.5
2024-04-24T02:47:43.615Z,52.5
2024-04-24T02:49:27.328Z,52.5
2024-04-24T02:51:11.030Z,52.4
2024-04-24T02:52:54.724Z,52.4
2024-04-24T02:54:38.428Z,52.4
2024-04-24T02:56:22.144Z,52.4
2024-04-24T02:58:05.837Z,52.4
2024-04-24T02:59:49.527Z,52.4
2024-04-24T03:01:33.238Z,52.4
2024-04-24T03:03:16.950Z,52.4
2024-04-24T03:05:00.664Z,52.4
2024-04-24T03:06:44.339Z,52.4
2024-04-24T03:08:28.042Z,52.4
2024-04-24T03:10:11.739Z,52.4
2024-04-24T03:11:55.463Z,52.4
2024-04-24T03:13:39.160Z,52.4
2024-04-24T03:15:22.856Z,52.4
2024-04-24T03:17:06.574Z,52.4
2024-04-24T03:18:50.273Z,52.3
2024-04-24T03:20:33.971Z,52.4
2024-04-24T03:22:17.658Z,52.4
2024-04-24T03:24:01.370Z,52.4
2024-04-24T03:25:45.092Z,52.4
2024-04-24T03:27:28.771Z,52.3
2024-04-24T03:29:12.469Z,52.4
2024-04-24T03:30:56.172Z,52.4
2024-04-24T03:32:39.923Z,52.4
2024-04-24T03:34:23.607Z,52.5
2024-04-24T03:36:07.273Z,52.5
2024-04-24T03:37:50.976Z,52.5
2024-04-24T03:39:34.712Z,52.4
2024-04-24T03:41:18.461Z,52.4
2024-04-24T03:43:02.091Z,52.4
2024-04-24T03:44:45.793Z,52.4
2024-04-24T03:46:29.479Z,52.4
2024-04-24T03:48:13.211Z,52.5
2024-04-24T03:49:56.890Z,52.4
2024-04-24T03:51:40.603Z,52.4
2024-04-24T03:53:24.303Z,52.5
2024-04-24T03:55:08.001Z,52.5
2024-04-24T03:56:51.704Z,52.4
2024-04-24T03:58:35.441Z,52.5
2024-04-24T04:00:19.098Z,52.4
2024-04-24T04:02:02.796Z,52.5
2024-04-24T04:03:46.497Z,52.4
2024-04-24T04:05:30.220Z,52.5
2024-04-24T04:07:13.901Z,52.5
2024-04-24T04:08:57.641Z,52.4
2024-04-24T04:10:41.336Z,52.4
2024-04-24T04:12:25.043Z,52.4
2024-04-24T04:14:08.735Z,52.4
2024-04-24T04:15:52.423Z,52.4
2024-04-24T04:17:36.133Z,52.5
2024-04-24T04:19:19.826Z,52.5
2024-04-24T04:21:03.547Z,52.5
2024-04-24T04:22:47.230Z,52.5
2024-04-24T04:24:30.921Z,52.5
2024-04-24T04:26:14.648Z,52.5
2024-04-24T04:27:58.341Z,52.5
2024-04-24T04:29:42.044Z,52.5
2024-04-24T04:31:25.730Z,52.5
2024-04-24T04:33:09.452Z,52.5
2024-04-24T04:34:53.144Z,52.5
2024-04-24T04:36:36.853Z,52.5
2024-04-24T04:38:20.561Z,52.5
2024-04-24T04:40:04.252Z,52.5
2024-04-24T04:41:47.956Z,52.5
2024-04-24T04:43:31.668Z,52.5
2024-04-24T04:45:15.370Z,52.5
2024-04-24T04:46:59.066Z,52.5
2024-04-24T04:48:42.771Z,52.5
2024-04-24T04:50:26.478Z,52.5
2024-04-24T04:52:10.176Z,52.5
2024-04-24T04:53:53.883Z,52.4
2024-04-24T04:55:37.574Z,52.5
2024-04-24T04:57:21.280Z,52.5
2024-04-24T04:59:04.982Z,52.5
2024-04-24T05:00:48.709Z,52.5
2024-04-24T05:02:32.370Z,52.5
2024-04-24T05:04:16.082Z,52.5
2024-04-24T05:05:59.788Z,52.5
2024-04-24T05:07:43.478Z,52.5
2024-04-24T05:09:27.181Z,52.5
2024-04-24T05:11:10.917Z,52.4
2024-04-24T05:12:54.599Z,52.4
2024-04-24T05:14:38.287Z,52.4
2024-04-24T05:16:21.994Z,52.4
2024-04-24T05:18:05.691Z,52.5
2024-04-24T05:19:49.393Z,52.4
2024-04-24T05:21:33.093Z,52.4
2024-04-24T05:23:16.815Z,52.5
2024-04-24T05:25:00.496Z,52.4
2024-04-24T05:26:44.215Z,52.4
2024-04-24T05:28:27.897Z,52.4
2024-04-24T05:30:11.607Z,52.4
2024-04-24T05:31:55.309Z,52.4
2024-04-24T05:33:39.012Z,52.4
2024-04-24T05:35:22.819Z,52.4
2024-04-24T05:37:06.416Z,52.4
2024-04-24T05:38:50.110Z,52.4
2024-04-24T05:40:33.883Z,52.3
2024-04-24T05:42:17.545Z,52.4
2024-04-24T05:44:01.236Z,52.4
2024-04-24T05:45:44.942Z,52.3
2024-04-24T05:47:28.629Z,52.3
2024-04-24T05:49:12.328Z,52.3
2024-04-24T05:50:56.021Z,52.3
2024-04-24T05:52:39.739Z,52.3
2024-04-24T05:54:23.417Z,52.3
2024-04-24T05:56:07.117Z,52.3
2024-04-24T05:57:50.822Z,52.2
2024-04-24T05:59:34.544Z,51.9
2024-04-24T06:01:18.226Z,51.4
2024-04-24T06:03:01.932Z,50.6
2024-04-24T06:04:45.632Z,49.5
2024-04-24T06:06:29.339Z,48.6
2024-04-24T06:08:13.039Z,48
2024-04-24T06:09:56.727Z,47.4
2024-04-24T06:11:40.449Z,46.6
2024-04-24T06:13:24.175Z,46.1
2024-04-24T06:15:07.859Z,45.6
2024-04-24T06:16:51.566Z,44.9
2024-04-24T06:18:35.265Z,44.5
2024-04-24T06:20:18.958Z,44.4
2024-04-24T06:22:02.695Z,44.5
2024-04-24T06:23:46.421Z,43.8
2024-04-24T06:25:30.080Z,43.5
2024-04-24T06:27:13.783Z,43.3
2024-04-24T06:28:57.482Z,43
2024-04-24T06:30:41.182Z,42.7
2024-04-24T06:32:24.981Z,42.6
2024-04-24T06:34:08.599Z,42.3
2024-04-24T06:35:52.289Z,42
2024-04-24T06:37:35.991Z,41.7
2024-04-24T06:39:19.686Z,41.8
2024-04-24T06:41:03.422Z,42
2024-04-24T06:42:47.112Z,42.2
2024-04-24T06:44:30.808Z,42
2024-04-24T06:46:14.505Z,41.7
2024-04-24T06:47:58.224Z,41.5
2024-04-24T06:49:41.932Z,41.2
2024-04-24T06:51:25.601Z,40.8
2024-04-24T06:53:09.325Z,40.8
2024-04-24T06:54:53.026Z,41.2
2024-04-24T06:56:36.726Z,41.5
2024-04-24T06:58:20.423Z,41.9
2024-04-24T07:00:04.119Z,42.2
2024-04-24T07:01:47.850Z,42.6
2024-04-24T07:05:15.228Z,43.4
2024-04-24T07:06:58.940Z,43.8
2024-04-24T07:08:42.642Z,44.1
2024-04-24T07:10:26.338Z,44.4
2024-04-24T07:12:10.054Z,44.7
2024-04-24T07:13:53.751Z,44.5
2024-04-24T07:15:37.445Z,43.7
2024-04-24T07:17:21.151Z,43.2
2024-04-24T07:19:04.845Z,42.7
2024-04-24T07:20:48.542Z,42.2
2024-04-24T07:22:32.250Z,42
2024-04-24T07:24:15.954Z,42
2024-04-24T07:27:43.406Z,42.4
2024-04-24T07:29:27.080Z,42.8
2024-04-24T07:31:10.819Z,43.2
2024-04-24T07:32:54.468Z,43.6
2024-04-24T07:34:38.164Z,44
2024-04-24T07:36:21.850Z,44.4
2024-04-24T07:38:05.558Z,44.7
2024-04-24T07:39:49.256Z,45
2024-04-24T07:41:32.958Z,45.3
2024-04-24T07:43:16.672Z,45.6
2024-04-24T07:45:00.360Z,46.3
2024-04-24T07:46:44.064Z,46.6
2024-04-24T07:48:27.764Z,46.8
2024-04-24T07:50:11.458Z,46.9
2024-04-24T07:51:55.164Z,47.1
2024-04-24T07:53:38.949Z,47.2
2024-04-24T07:55:22.595Z,47.4
2024-04-24T07:57:06.289Z,47.6
2024-04-24T07:58:49.986Z,47.7
2024-04-24T08:00:33.691Z,47.8
2024-04-24T08:02:17.374Z,47.9
2024-04-24T08:04:01.081Z,48
2024-04-24T08:05:44.796Z,48.1
2024-04-24T08:09:12.194Z,48.3
2024-04-24T08:10:55.903Z,48.3
2024-04-24T08:12:39.645Z,48.4
2024-04-24T08:14:23.321Z,48.5
2024-04-24T08:16:07.006Z,48.6
2024-04-24T08:17:50.729Z,48.7
2024-04-24T08:19:34.423Z,48.8
2024-04-24T08:21:18.130Z,48.9
2024-04-24T08:23:01.822Z,49
2024-04-24T08:24:45.538Z,49.1
2024-04-24T08:26:29.246Z,49.1
2024-04-24T08:28:12.956Z,49.1
2024-04-24T08:29:56.641Z,49.2
2024-04-24T08:31:40.361Z,49.3
2024-04-24T08:33:24.055Z,49.3
2024-04-24T08:35:07.738Z,49.3
2024-04-24T08:36:51.425Z,49.4
2024-04-24T08:38:35.140Z,49.4
2024-04-24T08:40:18.839Z,49.4
2024-04-24T08:42:02.572Z,49.4
2024-04-24T08:43:46.259Z,49.4
2024-04-24T08:45:29.955Z,49.3
2024-04-24T08:47:13.653Z,49.4
2024-04-24T08:48:57.363Z,49.4
2024-04-24T08:50:41.059Z,49.4
2024-04-24T08:52:24.746Z,49.5
2024-04-24T08:54:08.454Z,49.4
2024-04-24T08:55:52.175Z,49.3
2024-04-24T08:57:36.114Z,49.2
2024-04-24T08:59:19.590Z,49.3
2024-04-24T09:01:03.291Z,49.4
2024-04-24T09:02:46.995Z,49.5
2024-04-24T09:04:30.686Z,49.6
2024-04-24T09:06:14.592Z,49.8
2024-04-24T09:07:58.081Z,49.9
2024-04-24T09:09:41.783Z,50
2024-04-24T09:11:25.511Z,50
2024-04-24T09:13:09.185Z,50
2024-04-24T09:14:52.896Z,50
2024-04-24T09:16:36.605Z,50
2024-04-24T09:18:20.306Z,50.2
2024-04-24T09:20:04.012Z,50.1
2024-04-24T09:21:47.720Z,50.2
2024-04-24T09:23:31.406Z,50.1
2024-04-24T09:25:15.095Z,50.2
2024-04-24T09:26:58.814Z,50
2024-04-24T09:28:42.521Z,49.7
2024-04-24T09:30:26.200Z,49.6
2024-04-24T09:32:09.912Z,49.6
2024-04-24T09:33:53.622Z,49.7
2024-04-24T09:35:37.313Z,49.7
2024-04-24T09:37:21.013Z,49.7
2024-04-24T09:39:04.722Z,49.8
2024-04-24T09:40:48.466Z,49.9
2024-04-24T09:42:32.093Z,50
2024-04-24T09:44:15.810Z,50.2
2024-04-24T09:45:59.542Z,50.3
2024-04-24T09:47:43.252Z,50.7
2024-04-24T09:49:26.970Z,50.7
2024-04-24T09:51:10.623Z,50.8
2024-04-24T09:52:54.440Z,51
2024-04-24T09:54:38.013Z,50.9
2024-04-24T09:56:21.741Z,50.9
2024-04-24T09:58:05.445Z,50.9
2024-04-24T09:59:49.152Z,51
2024-04-24T10:01:32.844Z,51
2024-04-24T10:03:16.560Z,51.1
2024-04-24T10:05:00.231Z,51.2
2024-04-24T10:06:43.941Z,51.3
2024-04-24T10:08:27.647Z,51.4
2024-04-24T10:10:11.331Z,51.6
2024-04-24T10:11:55.067Z,51.6
2024-04-24T10:13:38.754Z,51.7
2024-04-24T10:15:22.442Z,51.7
2024-04-24T10:17:06.167Z,51.7
2024-04-24T10:18:49.863Z,51.7
2024-04-24T10:20:33.563Z,51.7
2024-04-24T10:22:17.319Z,51.7
2024-04-24T10:24:01.021Z,51.7
2024-04-24T10:25:44.657Z,51.7
2024-04-24T10:27:28.359Z,51.6
2024-04-24T10:29:15.686Z,51.7
2024-04-24T10:30:55.783Z,51.8
2024-04-24T10:32:39.467Z,51.8
2024-04-24T10:34:23.167Z,51.7
2024-04-24T10:36:06.881Z,51.8
2024-04-24T10:37:50.572Z,51.7
2024-04-24T10:39:34.273Z,51.7
2024-04-24T10:41:17.966Z,51.8
2024-04-24T10:43:01.674Z,51.9
2024-04-24T10:44:45.372Z,51.9
2024-04-24T10:46:29.075Z,51.9
2024-04-24T10:48:12.762Z,51.9
2024-04-24T10:49:56.482Z,51.9
2024-04-24T10:51:40.251Z,51.7
2024-04-24T10:53:23.883Z,51.6
2024-04-24T10:55:07.584Z,51.4
2024-04-24T10:56:51.283Z,51.5
2024-04-24T10:58:34.985Z,51.6
2024-04-24T11:00:18.685Z,51.5
2024-04-24T11:02:02.392Z,51.7
2024-04-24T11:03:46.092Z,51.1
2024-04-24T11:05:29.796Z,51.5
2024-04-24T11:07:13.498Z,51.8
2024-04-24T11:08:57.190Z,51.8
2024-04-24T11:10:40.896Z,51.8
2024-04-24T11:12:24.622Z,51.8
2024-04-24T11:14:08.301Z,52
2024-04-24T11:15:52.025Z,51.8
2024-04-24T11:17:35.834Z,52
2024-04-24T11:19:19.397Z,52.3
2024-04-24T11:21:03.102Z,52.3
2024-04-24T11:22:46.901Z,51.9
2024-04-24T11:24:30.511Z,53
2024-04-24T11:26:14.200Z,53.4
2024-04-24T11:27:57.903Z,53.1
2024-04-24T11:29:41.591Z,54.6
2024-04-24T11:31:25.297Z,54.2
2024-04-24T11:33:09.003Z,54.6
2024-04-24T11:34:52.724Z,54.5
2024-04-24T11:36:36.411Z,54.4
2024-04-24T11:38:20.111Z,54.3
2024-04-24T11:40:03.813Z,54.3
2024-04-24T11:41:47.516Z,54.3
2024-04-24T11:43:31.224Z,54.3
2024-04-24T11:45:14.914Z,54.2
2024-04-24T11:46:58.612Z,54.1
2024-04-24T11:48:42.339Z,54.3
2024-04-24T11:50:26.054Z,54.4
2024-04-24T11:52:09.827Z,54.5
2024-04-24T11:55:37.241Z,54.6
2024-04-24T11:57:20.852Z,54.7
2024-04-24T11:59:04.550Z,54.7
2024-04-24T12:00:48.264Z,54.6
2024-04-24T12:02:31.948Z,54.6
2024-04-24T12:04:15.672Z,54.6
2024-04-24T12:05:59.346Z,54.4
2024-04-24T12:07:43.140Z,54.4
2024-04-24T12:09:26.779Z,53.9
2024-04-24T12:11:10.470Z,53.7
2024-04-24T12:12:54.177Z,53.9
2024-04-24T12:14:37.869Z,53.8
2024-04-24T12:16:21.567Z,53.6
2024-04-24T12:18:05.257Z,53.3
2024-04-24T12:19:48.969Z,53.4
2024-04-24T12:21:32.668Z,53
2024-04-24T12:25:00.071Z,52.5
2024-04-24T12:26:43.772Z,52.1
2024-04-24T12:28:27.466Z,51.8
2024-04-24T12:30:11.178Z,51.5
2024-04-24T12:31:54.873Z,51.3
2024-04-24T12:33:38.601Z,51.4
2024-04-24T12:35:22.287Z,51.4
2024-04-24T12:37:05.986Z,51.3
2024-04-24T12:38:49.694Z,51.1
2024-04-24T12:40:33.399Z,50.9
2024-04-24T12:42:17.076Z,50.5
2024-04-24T12:44:00.815Z,50.5
2024-04-24T12:45:44.513Z,50.6
2024-04-24T12:47:28.357Z,51
2024-04-24T12:49:11.910Z,51.3
2024-04-24T12:50:55.609Z,51.3
2024-04-24T12:52:39.302Z,51.3
2024-04-24T12:54:22.999Z,51.4
2024-04-24T12:56:06.713Z,51.6
2024-04-24T12:57:50.413Z,51.7
2024-04-24T12:59:34.133Z,51.7
2024-04-24T13:01:17.811Z,51.6
2024-04-24T13:03:01.514Z,51.3
2024-04-24T13:04:45.219Z,51.8
2024-04-24T13:06:28.911Z,52.3
2024-04-24T13:08:12.630Z,52.7
2024-04-24T13:09:56.307Z,52.5
2024-04-24T13:11:40.027Z,52.3
2024-04-24T13:13:23.721Z,52.1
2024-04-24T13:15:07.438Z,52
2024-04-24T13:16:51.112Z,52.2
2024-04-24T13:18:34.823Z,51.9
2024-04-24T13:20:18.546Z,51.8
2024-04-24T13:22:02.246Z,51.9
2024-04-24T13:23:46.015Z,52
2024-04-24T13:25:29.638Z,52
2024-04-24T13:27:13.371Z,52
2024-04-24T13:28:57.059Z,52
2024-04-24T13:30:40.739Z,52.1
2024-04-24T13:32:24.439Z,52.2
2024-04-24T13:34:08.153Z,52.3
2024-04-24T13:35:51.887Z,52.3
2024-04-24T13:37:35.563Z,52.3
2024-04-24T13:39:19.266Z,52.4
2024-04-24T13:41:03.011Z,52.2
2024-04-24T13:42:46.787Z,52.6
2024-04-24T13:44:30.372Z,52.7
2024-04-24T13:46:14.062Z,52.6
2024-04-24T13:47:57.772Z,52.7
2024-04-24T13:49:41.472Z,52.9
2024-04-24T13:51:25.165Z,53
2024-04-24T13:53:08.861Z,53.1
2024-04-24T13:54:52.585Z,53.1
2024-04-24T13:56:36.265Z,53.1
2024-04-24T13:58:19.978Z,53.3
2024-04-24T14:00:03.687Z,53.4
2024-04-24T14:01:47.392Z,53.5
2024-04-24T14:03:31.092Z,53.6
2024-04-24T14:05:14.778Z,53.7
2024-04-24T14:06:58.489Z,53.8
2024-04-24T14:08:42.196Z,53.9
2024-04-24T14:10:25.901Z,53.9
2024-04-24T14:12:09.608Z,53.9
2024-04-24T14:13:53.300Z,53.8
2024-04-24T14:15:37.120Z,54
2024-04-24T14:17:20.690Z,54.1
2024-04-24T14:19:04.439Z,54
2024-04-24T14:20:48.089Z,54.2
2024-04-24T14:22:31.776Z,54.2
2024-04-24T14:24:15.504Z,54.2
2024-04-24T14:25:59.233Z,54.2
2024-04-24T14:27:42.922Z,54.3
2024-04-24T14:29:26.605Z,54.4
2024-04-24T14:31:10.306Z,54.3
2024-04-24T14:32:54.039Z,54.2
2024-04-24T14:34:37.722Z,53.9
2024-04-24T14:36:21.436Z,53.8
2024-04-24T14:38:05.121Z,53.6
2024-04-24T14:39:48.821Z,53.6
2024-04-24T14:41:32.519Z,53.5
2024-04-24T14:43:16.241Z,53.4
2024-04-24T14:44:59.935Z,53.4
2024-04-24T14:46:43.625Z,53.4
2024-04-24T14:48:27.352Z,53.2
2024-04-24T14:50:11.043Z,53
2024-04-24T14:51:54.726Z,52.8
2024-04-24T14:53:38.415Z,52.8
2024-04-24T14:55:22.213Z,52.7
2024-04-24T14:57:05.850Z,52.9
2024-04-24T14:58:49.570Z,53.2
2024-04-24T15:00:33.235Z,53.6
2024-04-24T15:02:16.954Z,54
2024-04-24T15:04:00.666Z,54.2
2024-04-24T15:05:44.387Z,54.4
2024-04-24T15:07:28.060Z,54.7
2024-04-24T15:09:11.755Z,55.3
2024-04-24T15:10:55.477Z,55.7
2024-04-24T15:12:39.185Z,55.9
2024-04-24T15:14:22.851Z,56.2
2024-04-24T15:16:06.564Z,56.5
2024-04-24T15:17:50.270Z,56.6
2024-04-24T15:19:33.967Z,56.9
2024-04-24T15:21:17.643Z,57.4
2024-04-24T15:23:01.354Z,57.3
2024-04-24T15:24:45.073Z,57.6
2024-04-24T15:26:28.773Z,57.8
2024-04-24T15:28:12.471Z,58.4
2024-04-24T15:29:56.211Z,58.5
2024-04-24T15:31:39.875Z,58.5
2024-04-24T15:33:23.578Z,58.8
2024-04-24T15:35:07.271Z,58.4
2024-04-24T15:36:50.969Z,57.7
2024-04-24T15:38:34.691Z,57.7
2024-04-24T15:40:18.379Z,56.8
2024-04-24T15:42:02.099Z,57.1
2024-04-24T15:43:45.776Z,57.2
2024-04-24T15:45:29.485Z,57.4
2024-04-24T15:47:13.200Z,57.4
2024-04-24T15:48:56.895Z,57.4
2024-04-24T15:50:40.594Z,57.5
2024-04-24T15:52:24.293Z,57.4
2024-04-24T15:54:07.989Z,57.4
2024-04-24T15:55:51.702Z,57.3
2024-04-24T15:57:35.391Z,57.3
2024-04-24T15:59:19.094Z,57.3
2024-04-24T16:01:02.805Z,57.1
2024-04-24T16:02:46.503Z,57.1
2024-04-24T16:04:30.205Z,56.9
2024-04-24T16:06:13.924Z,56.9
2024-04-24T16:07:57.612Z,56.8
2024-04-24T16:09:41.291Z,56.6
2024-04-24T16:11:25.049Z,56.7
2024-04-24T16:13:08.707Z,56.7
2024-04-24T16:14:52.414Z,56.8
2024-04-24T16:16:36.130Z,56.8
2024-04-24T16:18:19.825Z,56.7
2024-04-24T16:20:03.612Z,56.7
2024-04-24T16:21:47.539Z,56.9
2024-04-24T16:23:30.939Z,56.9
2024-04-24T16:25:14.655Z,56.9
2024-04-24T16:26:58.356Z,57
2024-04-24T16:28:42.003Z,57
2024-04-24T16:30:25.742Z,57
2024-04-24T16:32:09.531Z,57.1
2024-04-24T16:33:53.139Z,57.3
2024-04-24T16:35:37.445Z,57.2
2024-04-24T16:37:20.549Z,57.3
2024-04-24T16:39:04.233Z,57.2
2024-04-24T16:42:31.677Z,57
2024-04-24T16:44:15.364Z,56.9
2024-04-24T16:45:59.057Z,56.6
2024-04-24T16:47:42.758Z,56.6
2024-04-24T16:49:26.422Z,56.6
2024-04-24T16:51:10.161Z,56.4
2024-04-24T16:52:53.845Z,56.5
2024-04-24T16:54:37.549Z,56.6
2024-04-24T16:56:21.332Z,56.9
2024-04-24T16:58:04.945Z,56.9
2024-04-24T16:59:48.649Z,56.9
2024-04-24T17:01:32.358Z,57
2024-04-24T17:03:16.050Z,56.9
2024-04-24T17:04:59.749Z,56.9
2024-04-24T17:06:43.471Z,56.9
2024-04-24T17:08:27.174Z,57
2024-04-24T17:10:10.886Z,57
2024-04-24T17:11:54.561Z,56.9
2024-04-24T17:13:38.270Z,56.9
2024-04-24T17:15:22.002Z,57
2024-04-24T17:17:05.677Z,57
2024-04-24T17:18:49.466Z,56.9
2024-04-24T17:20:33.068Z,56.8
2024-04-24T17:22:16.771Z,56.7
2024-04-24T17:24:00.504Z,56.6
2024-04-24T17:25:44.179Z,56.5
2024-04-24T17:27:27.889Z,56.2
2024-04-24T17:29:11.704Z,56.2
2024-04-24T17:30:55.285Z,56
2024-04-24T17:32:39.015Z,56
2024-04-24T17:34:22.679Z,56.1
2024-04-24T17:36:06.390Z,56.2
2024-04-24T17:37:50.226Z,56
2024-04-24T17:39:34.222Z,56.2
2024-04-24T17:41:17.617Z,56.1
2024-04-24T17:43:01.196Z,56
2024-04-24T17:44:44.897Z,56.1
2024-04-24T17:46:28.662Z,56.1
2024-04-24T17:48:12.292Z,56.3
2024-04-24T17:49:56.002Z,56
2024-04-24T17:51:39.704Z,55.9
2024-04-24T17:53:23.422Z,55.9
2024-04-24T17:55:07.102Z,55.9
2024-04-24T17:56:50.836Z,55.9
2024-04-24T17:58:34.555Z,56.1
2024-04-24T18:00:18.222Z,56.2
2024-04-24T18:02:01.906Z,56.1
2024-04-24T18:03:45.611Z,56.2
2024-04-24T18:05:29.319Z,56.3
2024-04-24T18:07:13.021Z,56.4
2024-04-24T18:08:56.724Z,56.4
2024-04-24T18:10:40.411Z,56.5
2024-04-24T18:12:24.139Z,56.5
2024-04-24T18:14:07.839Z,56.4
2024-04-24T18:15:51.554Z,56.5
2024-04-24T18:17:35.233Z,56.5
2024-04-24T18:19:18.936Z,56.6
2024-04-24T18:21:02.638Z,56.6
2024-04-24T18:22:46.351Z,56.6
2024-04-24T18:24:30.069Z,56.6
2024-04-24T18:26:13.748Z,56.7
2024-04-24T18:27:57.439Z,56.7
2024-04-24T18:29:41.140Z,56.7
2024-04-24T18:31:24.837Z,56.6
2024-04-24T18:33:08.535Z,56.7
2024-04-24T18:34:52.254Z,56.7
2024-04-24T18:36:35.949Z,56.7
2024-04-24T18:38:19.658Z,56.7
2024-04-24T18:40:03.349Z,56.7
2024-04-24T18:41:47.069Z,56.8
2024-04-24T18:43:31.067Z,56.8
2024-04-24T18:45:14.459Z,56.9
2024-04-24T18:46:58.192Z,56.8
2024-04-24T18:48:41.862Z,56.8
2024-04-24T18:50:25.563Z,56.7
2024-04-24T18:52:09.270Z,56.7
2024-04-24T18:53:52.959Z,56.6
2024-04-24T18:55:36.660Z,56.6
2024-04-24T18:57:20.359Z,56.6
2024-04-24T18:59:04.132Z,56.6
2024-04-24T19:00:47.805Z,56.6
2024-04-24T19:04:15.168Z,56.6
2024-04-24T19:05:58.881Z,56.5
2024-04-24T19:07:42.577Z,56.6
2024-04-24T19:09:26.283Z,56.5
2024-04-24T19:11:09.994Z,56.7
2024-04-24T19:12:53.693Z,56.7
2024-04-24T19:14:37.390Z,56.7
2024-04-24T19:16:21.094Z,56.7
2024-04-24T19:18:04.791Z,56.7
2024-04-24T19:19:48.487Z,56.7
2024-04-24T19:21:32.199Z,56.6
2024-04-24T19:23:15.896Z,56.6
2024-04-24T19:24:59.602Z,56.5
2024-04-24T19:26:43.347Z,56.6
2024-04-24T19:28:26.998Z,56.5
2024-04-24T19:30:10.696Z,56.4
2024-04-24T19:31:54.409Z,56.3
2024-04-24T19:33:38.114Z,56.3
2024-04-24T19:35:21.808Z,56.3
2024-04-24T19:37:05.522Z,56.2
2024-04-24T19:38:49.196Z,56.3
2024-04-24T19:40:32.910Z,56.2
2024-04-24T19:42:16.648Z,56.2
2024-04-24T19:44:00.339Z,56.3
2024-04-24T19:45:44.010Z,56.1
2024-04-24T19:47:27.724Z,56.2
2024-04-24T19:49:11.445Z,56.1
2024-04-24T19:50:55.141Z,56.1
2024-04-24T19:52:38.826Z,56.1
2024-04-24T19:54:22.521Z,56.2
2024-04-24T19:56:06.237Z,56.2
2024-04-24T19:57:49.951Z,56.1
2024-04-24T19:59:33.630Z,56.2
2024-04-24T20:01:17.337Z,56.2
2024-04-24T20:03:01.031Z,56.1
2024-04-24T20:04:44.749Z,56.2
2024-04-24T20:06:28.442Z,56.1
2024-04-24T20:08:12.131Z,56.1
2024-04-24T20:09:55.829Z,56.1
2024-04-24T20:11:39.542Z,56.1
2024-04-24T20:13:23.266Z,56.1
2024-04-24T20:15:06.957Z,56.1
2024-04-24T20:16:50.661Z,56.2
2024-04-24T20:18:34.334Z,56.2
2024-04-24T20:20:18.057Z,56.2
2024-04-24T20:22:01.744Z,56.1
2024-04-24T20:23:45.457Z,56.1
2024-04-24T20:25:29.158Z,56
2024-04-24T20:27:12.847Z,56.1
2024-04-24T20:28:56.564Z,56
2024-04-24T20:30:40.250Z,56
2024-04-24T20:32:23.962Z,56
2024-04-24T20:34:07.708Z,56.1
2024-04-24T20:35:51.388Z,56
2024-04-24T20:37:35.074Z,56
2024-04-24T20:39:18.774Z,55.9
2024-04-24T20:41:02.490Z,56
2024-04-24T20:42:46.187Z,55.9
2024-04-24T20:44:30.001Z,55.9
2024-04-24T20:46:13.568Z,55.9
2024-04-24T20:47:57.310Z,55.8
2024-04-24T20:49:40.990Z,55.8
2024-04-24T20:51:24.670Z,55.9
2024-04-24T20:53:08.386Z,55.8
2024-04-24T20:54:52.077Z,55.8
2024-04-24T20:56:35.795Z,55.8
2024-04-24T20:58:19.496Z,55.8
2024-04-24T21:00:03.194Z,55.7
2024-04-24T21:01:46.906Z,55.7
2024-04-24T21:03:30.592Z,55.7
2024-04-24T21:05:14.317Z,55.8
2024-04-24T21:06:57.987Z,55.9
2024-04-24T21:08:41.696Z,55.7
2024-04-24T21:10:25.400Z,55.7
2024-04-24T21:12:09.118Z,55.8
2024-04-24T21:13:52.816Z,55.7
2024-04-24T21:15:36.523Z,55.7
2024-04-24T21:17:20.210Z,55.7
2024-04-24T21:19:03.921Z,55.7
2024-04-24T21:20:47.614Z,55.7
2024-04-24T21:22:31.341Z,55.8
2024-04-24T21:24:15.015Z,55.7
2024-04-24T21:25:58.732Z,55.7
2024-04-24T21:27:42.425Z,55.7
2024-04-24T21:29:26.147Z,55.6
2024-04-24T21:31:09.816Z,55.6
2024-04-24T21:32:53.541Z,55.7
2024-04-24T21:34:37.263Z,55.6
2024-04-24T21:36:20.944Z,55.7
2024-04-24T21:38:04.641Z,55.7
2024-04-24T21:39:48.344Z,55.6
2024-04-24T21:41:32.055Z,55.7
2024-04-24T21:43:15.731Z,55.7
2024-04-24T21:44:59.430Z,55.6
2024-04-24T21:46:43.127Z,55.6
2024-04-24T21:48:26.851Z,55.6
2024-04-24T21:50:10.553Z,55.7
2024-04-24T21:51:54.281Z,55.7
2024-04-24T21:53:38.063Z,55.7
2024-04-24T21:55:21.668Z,55.8
2024-04-24T21:57:05.475Z,55.7
2024-04-24T21:58:49.055Z,55.7
2024-04-24T22:00:32.751Z,55.6
2024-04-24T22:02:16.455Z,55.6
2024-04-24T22:04:00.172Z,55.6
2024-04-24T22:05:43.892Z,55.6
2024-04-24T22:07:27.609Z,55.6
2024-04-24T22:09:11.263Z,55.6
2024-04-24T22:10:54.954Z,55.5
2024-04-24T22:12:38.685Z,55.5
2024-04-24T22:14:22.372Z,55.5
2024-04-24T22:16:06.082Z,55.5
2024-04-24T22:17:49.762Z,55.5
2024-04-24T22:19:33.468Z,55.5
2024-04-24T22:21:17.216Z,55.5
2024-04-24T22:23:00.912Z,55.7
2024-04-24T22:24:44.600Z,55.6
2024-04-24T22:26:28.299Z,55.7
2024-04-24T22:28:11.986Z,55.7
2024-04-24T22:29:55.693Z,55.7
2024-04-24T22:31:39.508Z,55.6
2024-04-24T22:33:23.095Z,55.6
2024-04-24T22:35:06.795Z,55.6
2024-04-24T22:36:50.505Z,55.5
2024-04-24T22:38:34.203Z,55.5
2024-04-24T22:40:17.988Z,55.6
2024-04-24T22:42:01.605Z,55.6
2024-04-24T22:43:45.303Z,55.5
2024-04-24T22:45:29.023Z,55.4
2024-04-24T22:47:12.707Z,55.3
2024-04-24T22:48:56.459Z,55.2
2024-04-24T22:50:40.121Z,55
2024-04-24T22:52:23.831Z,55
2024-04-24T22:54:07.521Z,54.8
2024-04-24T22:55:51.217Z,54.8
2024-04-24T22:57:34.916Z,54.7
2024-04-24T22:59:18.600Z,54.8
2024-04-24T23:01:02.325Z,54.8
2024-04-24T23:02:46.025Z,54.8
2024-04-24T23:04:29.718Z,54.8
2024-04-24T23:06:13.430Z,54.8
2024-04-24T23:07:57.112Z,54.8
2024-04-24T23:09:40.892Z,54.8
2024-04-24T23:11:24.533Z,54.8
2024-04-24T23:13:08.221Z,54.9
2024-04-24T23:14:51.930Z,54.8
2024-04-24T23:16:35.635Z,54.8
2024-04-24T23:18:19.339Z,54.8